Egegik Airport Egegik US
ICAO: PAII
IATA:
Category: Medium
Scheduled Services:

Elevation: 92 ft
TransAlt. 18000 ft.

Airport Communications:
ANCHORAGE CNTR:124.8
AWOS 3:135.65
CTAF:122.8

PAII Zoom In..

If you have problems with the map follow the link
https://www.worldairports.se/pages/airport.php?
ICAO=PAII

Runways:

(A) RW 03 length 1500 ft width 75 ft
---- / hdg 32

(B) RW 12 length 5600 ft width 100 ft
---- / hdg 122

(C) RW 21 length 1500 ft width 75 ft
---- / hdg 212

(D) RW 30 length 5600 ft width 100 ft
---- / hdg 302

Location; PAII
Day. 16 / Time. 11.56 Zulu
* Altimeter: 29.72
* Temperature: 03° c. 37.4°f.
* Wind from: 010° Speed 03 kn.
Dewpoint: 03° c.
Visibility: 10 Statute Miles.
Clouds: Broken 4900 ft.
Clouds: Overcast 6000 ft.

PAII 161156Z AUTO 01003KT 10SM BKN049 OVC060 03/03 A2972 RMK AO2 RAE02 SLP067 P0000 60007 70013 T00330028 10033 20022 58016


Wind From 010°
Speed 03 kn.

 
 
jpsmedia.com for Web Design worldairports.se 2018   terms of use